createdAt,value
2024-03-15T00:01:05.848Z,73
2024-03-15T00:02:17.878Z,73
2024-03-15T00:03:29.882Z,72
2024-03-15T00:04:41.843Z,73
2024-03-15T00:05:53.824Z,73
2024-03-15T00:07:05.837Z,73
2024-03-15T00:08:17.836Z,73
2024-03-15T00:09:29.838Z,73
2024-03-15T00:10:41.851Z,73
2024-03-15T00:11:53.829Z,74
2024-03-15T00:13:05.822Z,73
2024-03-15T00:14:17.839Z,74
2024-03-15T00:15:29.834Z,74
2024-03-15T00:16:41.820Z,74
2024-03-15T00:17:53.834Z,74
2024-03-15T00:19:05.951Z,74
2024-03-15T00:20:17.853Z,73
2024-03-15T00:21:29.849Z,73
2024-03-15T00:22:41.815Z,73
2024-03-15T00:23:53.835Z,73
2024-03-15T00:25:05.838Z,73
2024-03-15T00:26:17.855Z,74
2024-03-15T00:27:29.846Z,74
2024-03-15T00:28:41.827Z,74
2024-03-15T00:29:53.816Z,74
2024-03-15T00:31:05.894Z,74
2024-03-15T00:32:17.818Z,74
2024-03-15T00:33:29.833Z,74
2024-03-15T00:34:41.946Z,74
2024-03-15T00:35:53.835Z,74
2024-03-15T00:37:05.850Z,74
2024-03-15T00:38:17.827Z,73
2024-03-15T00:39:29.847Z,74
2024-03-15T00:40:41.839Z,74
2024-03-15T00:41:53.837Z,74
2024-03-15T00:43:05.809Z,74
2024-03-15T00:44:17.848Z,74
2024-03-15T00:45:29.909Z,74
2024-03-15T00:46:41.839Z,74
2024-03-15T00:47:53.908Z,74
2024-03-15T00:49:05.844Z,74
2024-03-15T00:50:17.859Z,74
2024-03-15T00:51:30.261Z,74
2024-03-15T00:52:42.211Z,74
2024-03-15T00:53:54.235Z,74
2024-03-15T00:55:06.195Z,74
2024-03-15T00:56:18.217Z,75
2024-03-15T00:57:30.237Z,75
2024-03-15T00:58:42.259Z,75
2024-03-15T01:00:06.285Z,75
2024-03-15T01:01:18.205Z,75
2024-03-15T01:02:31.309Z,75
2024-03-15T01:03:42.271Z,75
2024-03-15T01:04:54.211Z,75
2024-03-15T01:06:06.205Z,75
2024-03-15T01:07:18.182Z,75
2024-03-15T01:08:30.230Z,74
2024-03-15T01:09:42.449Z,74
2024-03-15T01:10:54.273Z,75
2024-03-15T01:12:18.247Z,75
2024-03-15T01:13:30.215Z,75
2024-03-15T01:14:42.229Z,75
2024-03-15T01:15:54.220Z,75
2024-03-15T01:17:06.182Z,75
2024-03-15T01:18:18.794Z,75
2024-03-15T01:19:30.248Z,75
2024-03-15T01:20:42.220Z,75
2024-03-15T01:21:54.219Z,74
2024-03-15T01:23:06.190Z,74
2024-03-15T01:24:18.262Z,74
2024-03-15T01:25:30.205Z,74
2024-03-15T01:26:42.311Z,74
2024-03-15T01:27:54.222Z,74
2024-03-15T01:29:06.231Z,74
2024-03-15T01:30:18.331Z,74
2024-03-15T01:31:30.249Z,75
2024-03-15T01:32:42.264Z,75
2024-03-15T01:33:54.303Z,74
2024-03-15T01:35:06.211Z,74
2024-03-15T01:36:18.203Z,74
2024-03-15T01:37:30.221Z,74
2024-03-15T01:38:42.318Z,74
2024-03-15T01:39:54.229Z,75
2024-03-15T01:41:18.226Z,75
2024-03-15T01:42:30.209Z,75
2024-03-15T01:43:42.203Z,75
2024-03-15T01:44:54.202Z,75
2024-03-15T01:46:06.222Z,75
2024-03-15T01:47:18.188Z,76
2024-03-15T01:48:30.314Z,75
2024-03-15T01:49:42.198Z,75
2024-03-15T01:51:18.634Z,75
2024-03-15T01:52:30.579Z,75
2024-03-15T01:53:42.609Z,75
2024-03-15T01:54:54.617Z,76
2024-03-15T01:56:06.599Z,75
2024-03-15T01:57:18.619Z,75
2024-03-15T01:58:30.601Z,75
2024-03-15T01:59:42.594Z,75
2024-03-15T02:00:54.664Z,75
2024-03-15T02:02:06.588Z,75
2024-03-15T02:03:18.656Z,75
2024-03-15T02:04:30.615Z,75
2024-03-15T02:05:42.611Z,75
2024-03-15T02:06:54.633Z,74
2024-03-15T02:08:06.573Z,74
2024-03-15T02:09:18.641Z,74
2024-03-15T02:10:30.596Z,74
2024-03-15T02:11:42.624Z,74
2024-03-15T02:12:54.656Z,74
2024-03-15T02:14:06.598Z,74
2024-03-15T02:15:18.640Z,74
2024-03-15T02:16:30.587Z,74
2024-03-15T02:17:42.609Z,74
2024-03-15T02:18:54.598Z,74
2024-03-15T02:20:06.584Z,74
2024-03-15T02:21:18.591Z,74
2024-03-15T02:22:30.584Z,74
2024-03-15T02:23:42.638Z,74
2024-03-15T02:24:54.609Z,74
2024-03-15T02:26:06.575Z,74
2024-03-15T02:27:18.709Z,74
2024-03-15T02:28:30.589Z,74
2024-03-15T02:29:42.678Z,74
2024-03-15T02:30:54.661Z,74
2024-03-15T02:32:06.642Z,74
2024-03-15T02:33:18.654Z,74
2024-03-15T02:34:30.604Z,74
2024-03-15T02:35:42.588Z,75
2024-03-15T02:36:54.654Z,75
2024-03-15T02:38:06.585Z,75
2024-03-15T02:39:18.627Z,75
2024-03-15T02:40:30.601Z,75
2024-03-15T02:41:42.589Z,75
2024-03-15T02:42:54.821Z,75
2024-03-15T02:44:06.572Z,75
2024-03-15T02:45:18.589Z,75
2024-03-15T02:46:30.623Z,75
2024-03-15T02:47:42.682Z,75
2024-03-15T02:48:54.630Z,75
2024-03-15T02:50:06.612Z,75
2024-03-15T02:51:18.974Z,76
2024-03-15T02:52:31.043Z,76
2024-03-15T02:53:42.984Z,76
2024-03-15T02:54:54.956Z,76
2024-03-15T02:56:06.974Z,76
2024-03-15T02:57:19.032Z,76
2024-03-15T02:58:30.979Z,76
2024-03-15T02:59:42.986Z,76
2024-03-15T03:00:55.020Z,76
2024-03-15T03:02:06.980Z,76
2024-03-15T03:03:19.048Z,76
2024-03-15T03:04:30.980Z,76
2024-03-15T03:05:42.960Z,76
2024-03-15T03:06:55.039Z,76
2024-03-15T03:08:06.990Z,77
2024-03-15T03:09:19.054Z,77
2024-03-15T03:10:30.962Z,77
2024-03-15T03:11:42.988Z,77
2024-03-15T03:12:55.014Z,77
2024-03-15T03:14:06.985Z,78
2024-03-15T03:15:18.976Z,78
2024-03-15T03:16:30.969Z,78
2024-03-15T03:17:42.950Z,77
2024-03-15T03:18:54.996Z,77
2024-03-15T03:20:06.980Z,77
2024-03-15T03:21:18.966Z,77
2024-03-15T03:22:30.975Z,77
2024-03-15T03:23:42.991Z,78
2024-03-15T03:24:54.990Z,77
2024-03-15T03:26:06.975Z,77
2024-03-15T03:27:19.038Z,77
2024-03-15T03:28:30.982Z,78
2024-03-15T03:29:43.010Z,78
2024-03-15T03:30:55.024Z,78
2024-03-15T03:32:09.273Z,78
2024-03-15T03:33:19.101Z,78
2024-03-15T03:34:31.002Z,78
2024-03-15T03:35:43.063Z,78
2024-03-15T03:36:55.024Z,78
2024-03-15T03:38:07.002Z,78
2024-03-15T03:39:18.987Z,78
2024-03-15T03:40:31.035Z,78
2024-03-15T03:41:42.996Z,77
2024-03-15T03:42:55.046Z,78
2024-03-15T03:44:06.987Z,78
2024-03-15T03:45:19.309Z,78
2024-03-15T03:46:30.966Z,79
2024-03-15T03:47:43.008Z,78
2024-03-15T03:48:55.019Z,78
2024-03-15T03:50:07.006Z,79
2024-03-15T03:51:19.388Z,79
2024-03-15T03:52:31.366Z,79
2024-03-15T03:53:43.454Z,79
2024-03-15T03:54:57.715Z,80
2024-03-15T03:56:07.351Z,80
2024-03-15T03:57:19.717Z,80
2024-03-15T03:58:31.363Z,80
2024-03-15T03:59:43.340Z,80
2024-03-15T04:00:55.446Z,79
2024-03-15T04:02:07.329Z,79
2024-03-15T04:03:19.379Z,79
2024-03-15T04:04:31.393Z,79
2024-03-15T04:05:43.361Z,79
2024-03-15T04:06:55.422Z,79
2024-03-15T04:08:07.384Z,79
2024-03-15T04:09:19.431Z,79
2024-03-15T04:10:31.385Z,79
2024-03-15T04:11:43.412Z,79
2024-03-15T04:12:55.373Z,79
2024-03-15T04:14:07.376Z,79
2024-03-15T04:15:24.721Z,79
2024-03-15T04:16:31.355Z,80
2024-03-15T04:17:43.397Z,80
2024-03-15T04:18:55.425Z,79
2024-03-15T04:20:07.400Z,79
2024-03-15T04:21:19.426Z,79
2024-03-15T04:22:31.367Z,79
2024-03-15T04:23:43.372Z,79
2024-03-15T04:24:55.366Z,79
2024-03-15T04:26:07.378Z,79
2024-03-15T04:27:19.367Z,79
2024-03-15T04:28:31.384Z,79
2024-03-15T04:29:43.457Z,78
2024-03-15T04:30:55.382Z,78
2024-03-15T04:32:07.358Z,79
2024-03-15T04:33:19.474Z,78
2024-03-15T04:34:31.354Z,78
2024-03-15T04:35:43.353Z,78
2024-03-15T04:36:55.403Z,78
2024-03-15T04:38:07.351Z,78
2024-03-15T04:39:19.371Z,78
2024-03-15T04:40:31.409Z,79
2024-03-15T04:41:43.355Z,79
2024-03-15T04:42:55.387Z,77
2024-03-15T04:44:07.376Z,77
2024-03-15T04:45:19.410Z,78
2024-03-15T04:46:31.370Z,77
2024-03-15T04:47:43.437Z,77
2024-03-15T04:48:55.404Z,77
2024-03-15T04:50:07.389Z,77
2024-03-15T04:51:19.746Z,77
2024-03-15T04:52:31.762Z,77
2024-03-15T04:53:43.756Z,77
2024-03-15T04:54:55.774Z,77
2024-03-15T04:56:07.730Z,77
2024-03-15T04:57:19.750Z,77
2024-03-15T04:58:31.749Z,77
2024-03-15T04:59:43.738Z,77
2024-03-15T05:00:55.807Z,76
2024-03-15T05:02:07.768Z,77
2024-03-15T05:03:19.760Z,77
2024-03-15T05:04:31.733Z,76
2024-03-15T05:05:43.737Z,76
2024-03-15T05:06:55.778Z,76
2024-03-15T05:08:07.774Z,76
2024-03-15T05:09:19.923Z,76
2024-03-15T05:10:31.903Z,76
2024-03-15T05:11:43.754Z,76
2024-03-15T05:12:55.744Z,76
2024-03-15T05:14:07.748Z,76
2024-03-15T05:15:19.842Z,75
2024-03-15T05:16:31.748Z,76
2024-03-15T05:17:43.903Z,76
2024-03-15T05:18:55.787Z,76
2024-03-15T05:20:07.738Z,76
2024-03-15T05:21:19.823Z,76
2024-03-15T05:22:31.814Z,76
2024-03-15T05:23:43.761Z,76
2024-03-15T05:24:55.751Z,77
2024-03-15T05:26:07.747Z,77
2024-03-15T05:27:19.845Z,76
2024-03-15T05:28:31.727Z,76
2024-03-15T05:29:43.775Z,76
2024-03-15T05:30:55.829Z,76
2024-03-15T05:32:07.750Z,76
2024-03-15T05:33:19.885Z,76
2024-03-15T05:34:31.791Z,76
2024-03-15T05:35:43.735Z,76
2024-03-15T05:36:55.766Z,76
2024-03-15T05:38:07.763Z,76
2024-03-15T05:39:19.940Z,76
2024-03-15T05:40:31.814Z,76
2024-03-15T05:41:43.756Z,76
2024-03-15T05:42:55.816Z,77
2024-03-15T05:44:07.758Z,77
2024-03-15T05:45:19.762Z,77
2024-03-15T05:46:31.745Z,76
2024-03-15T05:47:43.856Z,76
2024-03-15T05:48:55.835Z,76
2024-03-15T05:50:07.767Z,76
2024-03-15T05:51:20.142Z,76
2024-03-15T05:52:32.134Z,76
2024-03-15T05:53:46.688Z,76
2024-03-15T05:54:56.205Z,76
2024-03-15T05:56:08.143Z,75
2024-03-15T05:57:20.138Z,75
2024-03-15T05:58:32.124Z,75
2024-03-15T05:59:44.157Z,75
2024-03-15T06:00:56.156Z,75
2024-03-15T06:02:08.230Z,75
2024-03-15T06:03:20.168Z,75
2024-03-15T06:04:32.140Z,75
2024-03-15T06:05:44.130Z,75
2024-03-15T06:06:56.121Z,75
2024-03-15T06:08:08.132Z,75
2024-03-15T06:09:20.220Z,75
2024-03-15T06:10:32.168Z,75
2024-03-15T06:11:44.168Z,76
2024-03-15T06:12:56.117Z,75
2024-03-15T06:14:08.122Z,75
2024-03-15T06:15:20.198Z,75
2024-03-15T06:16:32.123Z,74
2024-03-15T06:17:44.140Z,75
2024-03-15T06:18:56.211Z,75
2024-03-15T06:20:08.120Z,75
2024-03-15T06:21:20.211Z,75
2024-03-15T06:22:32.171Z,75
2024-03-15T06:23:44.123Z,75
2024-03-15T06:24:56.210Z,74
2024-03-15T06:26:08.115Z,74
2024-03-15T06:27:20.273Z,75
2024-03-15T06:28:32.147Z,74
2024-03-15T06:29:44.129Z,74
2024-03-15T06:30:56.140Z,74
2024-03-15T06:32:08.148Z,74
2024-03-15T06:33:20.198Z,75
2024-03-15T06:34:32.217Z,74
2024-03-15T06:35:44.122Z,74
2024-03-15T06:36:56.128Z,74
2024-03-15T06:38:08.154Z,75
2024-03-15T06:39:20.172Z,74
2024-03-15T06:40:32.410Z,75
2024-03-15T06:41:44.137Z,75
2024-03-15T06:42:56.160Z,75
2024-03-15T06:44:08.239Z,75
2024-03-15T06:45:20.186Z,75
2024-03-15T06:46:32.163Z,74
2024-03-15T06:47:44.137Z,75
2024-03-15T06:48:56.512Z,74
2024-03-15T06:50:08.230Z,74
2024-03-15T06:51:20.585Z,74
2024-03-15T06:52:32.528Z,74
2024-03-15T06:53:44.538Z,74
2024-03-15T06:54:56.508Z,74
2024-03-15T06:56:08.501Z,74
2024-03-15T06:57:44.648Z,74
2024-03-15T06:58:56.503Z,74
2024-03-15T07:00:08.531Z,75
2024-03-15T07:01:20.540Z,75
2024-03-15T07:02:32.527Z,74
2024-03-15T07:03:44.595Z,74
2024-03-15T07:04:56.663Z,74
2024-03-15T07:06:08.518Z,74
2024-03-15T07:07:44.546Z,75
2024-03-15T07:08:56.511Z,75
2024-03-15T07:10:08.509Z,74
2024-03-15T07:11:44.553Z,74
2024-03-15T07:12:56.558Z,74
2024-03-15T07:14:08.518Z,74
2024-03-15T07:15:20.546Z,74
2024-03-15T07:16:32.599Z,73
2024-03-15T07:17:44.521Z,72
2024-03-15T07:18:56.591Z,73
2024-03-15T07:20:08.536Z,72
2024-03-15T07:21:08.719Z,72
2024-03-15T07:22:20.538Z,72
2024-03-15T07:23:32.541Z,72
2024-03-15T07:24:44.516Z,72
2024-03-15T07:25:56.532Z,72
2024-03-15T07:27:08.534Z,72
2024-03-15T07:28:20.546Z,72
2024-03-15T07:29:32.537Z,72
2024-03-15T07:30:44.543Z,72
2024-03-15T07:31:56.513Z,72
2024-03-15T07:33:08.880Z,72
2024-03-15T07:34:20.540Z,72
2024-03-15T07:35:32.498Z,72
2024-03-15T07:36:44.538Z,72
2024-03-15T07:37:44.532Z,72
2024-03-15T07:38:56.532Z,72
2024-03-15T07:40:08.588Z,72
2024-03-15T07:41:20.490Z,72
2024-03-15T07:42:32.584Z,71
2024-03-15T07:43:44.500Z,71
2024-03-15T07:44:56.552Z,72
2024-03-15T07:46:08.602Z,71
2024-03-15T07:47:20.536Z,72
2024-03-15T07:48:32.533Z,72
2024-03-15T07:49:44.524Z,71
2024-03-15T07:50:56.573Z,72
2024-03-15T07:52:08.969Z,71
2024-03-15T07:53:20.971Z,71
2024-03-15T07:54:32.955Z,72
2024-03-15T07:55:44.938Z,72
2024-03-15T07:56:56.940Z,72
2024-03-15T07:59:20.952Z,72
2024-03-15T08:00:33.035Z,72
2024-03-15T08:01:44.970Z,72
2024-03-15T08:02:56.935Z,72
2024-03-15T08:04:09.007Z,72
2024-03-15T08:05:20.973Z,72
2024-03-15T08:06:33.029Z,73
2024-03-15T08:07:44.937Z,73
2024-03-15T08:08:56.968Z,73
2024-03-15T08:10:08.994Z,73
2024-03-15T08:11:21.084Z,74
2024-03-15T08:12:32.999Z,73
2024-03-15T08:13:44.984Z,74
2024-03-15T08:14:56.996Z,74
2024-03-15T08:16:09.028Z,74
2024-03-15T08:17:20.945Z,74
2024-03-15T08:18:33.008Z,74
2024-03-15T08:19:45.017Z,74
2024-03-15T08:20:56.972Z,75
2024-03-15T08:22:08.990Z,75
2024-03-15T08:23:20.964Z,75
2024-03-15T08:24:33.000Z,75
2024-03-15T08:25:44.988Z,75
2024-03-15T08:26:56.982Z,76
2024-03-15T08:28:08.988Z,78
2024-03-15T08:29:20.937Z,80
2024-03-15T08:30:33.019Z,80
2024-03-15T08:32:56.992Z,81
2024-03-15T08:34:09.279Z,81
2024-03-15T08:35:20.959Z,81
2024-03-15T08:36:32.970Z,82
2024-03-15T08:37:45.030Z,82
2024-03-15T08:38:57.024Z,82
2024-03-15T08:40:09.047Z,81
2024-03-15T08:41:20.938Z,81
2024-03-15T08:42:32.989Z,81
2024-03-15T08:43:44.963Z,81
2024-03-15T08:44:56.941Z,81
2024-03-15T08:46:09.001Z,81
2024-03-15T08:47:20.975Z,81
2024-03-15T08:48:33.059Z,81
2024-03-15T08:49:44.980Z,82
2024-03-15T08:50:56.972Z,81
2024-03-15T08:52:09.447Z,81
2024-03-15T08:53:21.375Z,81
2024-03-15T08:54:33.331Z,81
2024-03-15T08:55:45.322Z,81
2024-03-15T08:56:57.320Z,81
2024-03-15T08:58:09.329Z,81
2024-03-15T08:59:21.331Z,81
2024-03-15T09:00:33.384Z,82
2024-03-15T09:02:57.376Z,81
2024-03-15T09:04:09.879Z,81
2024-03-15T09:05:21.399Z,81
2024-03-15T09:06:33.349Z,82
2024-03-15T09:07:45.361Z,81
2024-03-15T09:08:57.340Z,81
2024-03-15T09:10:09.438Z,81
2024-03-15T09:11:21.389Z,81
2024-03-15T09:12:33.453Z,80
2024-03-15T09:13:48.902Z,80
2024-03-15T09:14:57.328Z,80
2024-03-15T09:16:09.443Z,80
2024-03-15T09:17:21.333Z,80
2024-03-15T09:18:33.429Z,80
2024-03-15T09:19:45.387Z,79
2024-03-15T09:20:57.319Z,79
2024-03-15T09:22:09.327Z,79
2024-03-15T09:23:21.385Z,80
2024-03-15T09:24:33.482Z,79
2024-03-15T09:25:45.368Z,78
2024-03-15T09:26:57.310Z,78
2024-03-15T09:28:09.346Z,79
2024-03-15T09:29:21.526Z,78
2024-03-15T09:30:33.315Z,78
2024-03-15T09:31:53.082Z,78
2024-03-15T09:32:57.343Z,78
2024-03-15T09:34:09.415Z,78
2024-03-15T09:35:21.365Z,78
2024-03-15T09:36:33.351Z,78
2024-03-15T09:37:45.408Z,77
2024-03-15T09:38:57.398Z,77
2024-03-15T09:40:09.429Z,77
2024-03-15T09:41:21.372Z,77
2024-03-15T09:42:33.717Z,77
2024-03-15T09:43:45.341Z,77
2024-03-15T09:44:57.372Z,76
2024-03-15T09:46:09.430Z,77
2024-03-15T09:47:21.383Z,76
2024-03-15T09:48:34.356Z,76
2024-03-15T09:49:45.330Z,76
2024-03-15T09:50:57.389Z,76
2024-03-15T09:52:09.907Z,76
2024-03-15T09:53:21.756Z,76
2024-03-15T09:54:35.460Z,76
2024-03-15T09:55:45.890Z,76
2024-03-15T09:56:57.829Z,76
2024-03-15T09:58:09.754Z,76
2024-03-15T09:59:21.890Z,77
2024-03-15T10:00:33.879Z,77
2024-03-15T10:01:45.882Z,77
2024-03-15T10:02:57.811Z,78
2024-03-15T10:04:09.783Z,78
2024-03-15T10:05:21.754Z,78
2024-03-15T10:06:33.754Z,78
2024-03-15T10:07:45.831Z,78
2024-03-15T10:08:57.797Z,78
2024-03-15T10:10:09.815Z,78
2024-03-15T10:11:21.792Z,77
2024-03-15T10:12:33.790Z,78
2024-03-15T10:13:46.124Z,78
2024-03-15T10:14:57.826Z,77
2024-03-15T10:16:09.826Z,77
2024-03-15T10:17:21.782Z,77
2024-03-15T10:18:33.786Z,77
2024-03-15T10:19:45.794Z,77
2024-03-15T10:20:58.012Z,76
2024-03-15T10:22:09.801Z,75
2024-03-15T10:23:21.831Z,76
2024-03-15T10:24:33.804Z,76
2024-03-15T10:25:45.772Z,76
2024-03-15T10:26:57.845Z,77
2024-03-15T10:28:09.788Z,76
2024-03-15T10:29:21.804Z,76
2024-03-15T10:30:33.775Z,76
2024-03-15T10:31:45.771Z,76
2024-03-15T10:32:57.803Z,76
2024-03-15T10:34:09.993Z,75
2024-03-15T10:35:21.778Z,75
2024-03-15T10:36:33.789Z,75
2024-03-15T10:37:45.765Z,75
2024-03-15T10:38:57.762Z,75
2024-03-15T10:40:09.769Z,75
2024-03-15T10:41:21.789Z,75
2024-03-15T10:42:33.780Z,74
2024-03-15T10:43:45.852Z,74
2024-03-15T10:44:57.767Z,73
2024-03-15T10:46:09.797Z,73
2024-03-15T10:47:21.773Z,73
2024-03-15T10:48:33.937Z,74
2024-03-15T10:49:45.833Z,73
2024-03-15T10:50:57.814Z,72
2024-03-15T10:52:10.395Z,73
2024-03-15T10:53:22.248Z,72
2024-03-15T10:54:34.246Z,73
2024-03-15T10:55:46.216Z,73
2024-03-15T10:56:58.210Z,73
2024-03-15T10:58:10.418Z,72
2024-03-15T10:59:22.236Z,72
2024-03-15T11:00:34.301Z,72
2024-03-15T11:02:58.186Z,72
2024-03-15T11:04:10.274Z,72
2024-03-15T11:05:22.417Z,72
2024-03-15T11:06:34.237Z,71
2024-03-15T11:07:46.224Z,71
2024-03-15T11:08:58.270Z,71
2024-03-15T11:10:10.253Z,71
2024-03-15T11:11:22.920Z,71
2024-03-15T11:12:34.213Z,71
2024-03-15T11:13:46.203Z,71
2024-03-15T11:14:58.224Z,71
2024-03-15T11:16:10.195Z,70
2024-03-15T11:17:23.613Z,69
2024-03-15T11:18:34.245Z,68
2024-03-15T11:19:46.217Z,68
2024-03-15T11:20:58.298Z,68
2024-03-15T11:22:10.210Z,68
2024-03-15T11:23:22.241Z,69
2024-03-15T11:24:34.205Z,69
2024-03-15T11:25:46.284Z,67
2024-03-15T11:26:58.301Z,67
2024-03-15T11:28:10.324Z,65
2024-03-15T11:29:22.219Z,65
2024-03-15T11:30:34.226Z,65
2024-03-15T11:31:46.204Z,65
2024-03-15T11:32:58.379Z,65
2024-03-15T11:34:10.248Z,66
2024-03-15T11:35:22.195Z,66
2024-03-15T11:36:34.258Z,66
2024-03-15T11:37:46.202Z,66
2024-03-15T11:38:58.230Z,66
2024-03-15T11:40:10.212Z,67
2024-03-15T11:41:22.266Z,66
2024-03-15T11:42:34.334Z,66
2024-03-15T11:43:46.223Z,66
2024-03-15T11:44:58.310Z,66
2024-03-15T11:46:10.377Z,66
2024-03-15T11:47:22.241Z,66
2024-03-15T11:48:34.319Z,66
2024-03-15T11:49:46.253Z,66
2024-03-15T11:50:58.199Z,67
2024-03-15T11:52:10.913Z,67
2024-03-15T11:53:22.711Z,67
2024-03-15T11:54:34.694Z,67
2024-03-15T11:55:46.789Z,67
2024-03-15T11:56:58.850Z,67
2024-03-15T11:58:10.882Z,67
2024-03-15T11:59:22.755Z,66
2024-03-15T12:00:34.756Z,67
2024-03-15T12:02:58.743Z,67
2024-03-15T12:04:10.754Z,68
2024-03-15T12:05:22.775Z,67
2024-03-15T12:06:34.780Z,68
2024-03-15T12:07:46.653Z,67
2024-03-15T12:08:58.727Z,67
2024-03-15T12:10:10.724Z,68
2024-03-15T12:11:22.837Z,67
2024-03-15T12:12:34.746Z,68
2024-03-15T12:13:46.681Z,68
2024-03-15T12:14:58.672Z,67
2024-03-15T12:16:10.933Z,67
2024-03-15T12:17:22.858Z,67
2024-03-15T12:18:34.766Z,67
2024-03-15T12:19:46.698Z,67
2024-03-15T12:20:58.688Z,68
2024-03-15T12:22:10.728Z,67
2024-03-15T12:23:22.702Z,68
2024-03-15T12:24:34.713Z,67
2024-03-15T12:25:46.737Z,68
2024-03-15T12:26:58.750Z,68
2024-03-15T12:28:10.752Z,68
2024-03-15T12:29:22.717Z,68
2024-03-15T12:30:34.751Z,67
2024-03-15T12:31:46.722Z,67
2024-03-15T12:32:58.690Z,68
2024-03-15T12:34:10.830Z,67
2024-03-15T12:35:22.756Z,67
2024-03-15T12:36:34.767Z,67
2024-03-15T12:37:46.732Z,66
2024-03-15T12:38:58.650Z,67
2024-03-15T12:40:10.654Z,67
2024-03-15T12:41:22.648Z,67
2024-03-15T12:42:34.689Z,67
2024-03-15T12:43:46.654Z,67
2024-03-15T12:44:58.634Z,68
2024-03-15T12:46:10.821Z,67
2024-03-15T12:47:22.638Z,67
2024-03-15T12:48:34.728Z,67
2024-03-15T12:49:46.615Z,67
2024-03-15T12:50:58.651Z,66
2024-03-15T12:52:11.085Z,67
2024-03-15T12:53:23.115Z,67
2024-03-15T12:54:35.104Z,67
2024-03-15T12:55:47.059Z,67
2024-03-15T12:56:59.072Z,67
2024-03-15T12:58:11.521Z,67
2024-03-15T12:59:23.087Z,67
2024-03-15T13:00:35.132Z,66
2024-03-15T13:01:47.111Z,67
2024-03-15T13:02:59.247Z,67
2024-03-15T13:04:11.152Z,67
2024-03-15T13:05:23.086Z,67
2024-03-15T13:06:35.089Z,67
2024-03-15T13:07:47.132Z,67
2024-03-15T13:08:59.087Z,68
2024-03-15T13:10:11.073Z,67
2024-03-15T13:11:23.122Z,68
2024-03-15T13:12:35.112Z,67
2024-03-15T13:13:47.107Z,67
2024-03-15T13:14:59.065Z,67
2024-03-15T13:16:11.288Z,67
2024-03-15T13:17:23.068Z,67
2024-03-15T13:18:35.130Z,67
2024-03-15T13:19:47.064Z,67
2024-03-15T13:20:59.076Z,67
2024-03-15T13:22:11.091Z,67
2024-03-15T13:23:23.058Z,67
2024-03-15T13:24:35.068Z,67
2024-03-15T13:25:47.062Z,67
2024-03-15T13:26:59.087Z,67
2024-03-15T13:28:11.060Z,67
2024-03-15T13:29:23.132Z,68
2024-03-15T13:30:35.152Z,68
2024-03-15T13:31:47.056Z,68
2024-03-15T13:33:00.960Z,68
2024-03-15T13:34:11.116Z,68
2024-03-15T13:35:23.096Z,69
2024-03-15T13:36:35.096Z,70
2024-03-15T13:37:47.090Z,72
2024-03-15T13:38:59.056Z,72
2024-03-15T13:40:11.109Z,73
2024-03-15T13:41:23.090Z,74
2024-03-15T13:42:35.107Z,75
2024-03-15T13:43:47.075Z,74
2024-03-15T13:44:59.099Z,75
2024-03-15T13:46:11.071Z,76
2024-03-15T13:47:23.089Z,76
2024-03-15T13:48:35.110Z,77
2024-03-15T13:49:47.079Z,77
2024-03-15T13:50:59.067Z,76
2024-03-15T13:52:11.504Z,77
2024-03-15T13:53:23.532Z,78
2024-03-15T13:54:35.548Z,77
2024-03-15T13:55:47.547Z,78
2024-03-15T13:56:59.556Z,79
2024-03-15T13:58:11.501Z,78
2024-03-15T13:59:23.529Z,79
2024-03-15T14:00:35.880Z,79
2024-03-15T14:01:47.552Z,80
2024-03-15T14:02:59.505Z,80
2024-03-15T14:04:11.491Z,80
2024-03-15T14:05:23.533Z,81
2024-03-15T14:06:35.575Z,78
2024-03-15T14:07:47.540Z,79
2024-03-15T14:08:59.553Z,78
2024-03-15T14:10:11.604Z,78
2024-03-15T14:11:23.554Z,77
2024-03-15T14:12:35.574Z,76
2024-03-15T14:13:47.501Z,76
2024-03-15T14:14:59.491Z,73
2024-03-15T14:16:11.526Z,72
2024-03-15T14:17:23.496Z,73
2024-03-15T14:18:35.562Z,73
2024-03-15T14:19:47.535Z,74
2024-03-15T14:20:59.522Z,74
2024-03-15T14:23:11.491Z,75
2024-03-15T14:24:23.510Z,76
2024-03-15T14:25:35.606Z,77
2024-03-15T14:27:59.565Z,76
2024-03-15T14:29:11.513Z,77
2024-03-15T14:30:23.739Z,76
2024-03-15T14:31:59.522Z,76
2024-03-15T14:33:12.026Z,73
2024-03-15T14:34:23.508Z,72
2024-03-15T14:36:35.537Z,70
2024-03-15T14:37:47.524Z,70
2024-03-15T14:38:59.517Z,68
2024-03-15T14:40:11.525Z,69
2024-03-15T14:41:23.495Z,70
2024-03-15T14:42:35.995Z,69
2024-03-15T14:43:47.500Z,68
2024-03-15T14:44:59.518Z,70
2024-03-15T14:46:11.525Z,71
2024-03-15T14:47:23.506Z,72
2024-03-15T14:48:35.578Z,73
2024-03-15T14:49:47.514Z,74
2024-03-15T14:50:59.545Z,74
2024-03-15T14:52:11.916Z,71
2024-03-15T14:53:23.885Z,72
2024-03-15T14:54:35.894Z,70
2024-03-15T14:55:47.928Z,67
2024-03-15T14:56:59.911Z,66
2024-03-15T14:58:11.925Z,67
2024-03-15T14:59:23.909Z,68
2024-03-15T15:00:35.966Z,67
2024-03-15T15:01:47.975Z,67
2024-03-15T15:02:59.998Z,67
2024-03-15T15:04:12.411Z,66
2024-03-15T15:05:23.971Z,66
2024-03-15T15:06:35.904Z,66
2024-03-15T15:07:47.949Z,65
2024-03-15T15:08:59.869Z,65
2024-03-15T15:10:11.981Z,65
2024-03-15T15:11:23.923Z,65
2024-03-15T15:12:35.923Z,64
2024-03-15T15:13:47.884Z,65
2024-03-15T15:14:59.900Z,65
2024-03-15T15:16:11.879Z,65
2024-03-15T15:17:24.013Z,65
2024-03-15T15:18:35.967Z,65
2024-03-15T15:19:47.902Z,66
2024-03-15T15:20:59.896Z,66
2024-03-15T15:22:11.911Z,66
2024-03-15T15:23:23.892Z,66
2024-03-15T15:24:35.934Z,65
2024-03-15T15:25:48.075Z,66
2024-03-15T15:26:59.952Z,66
2024-03-15T15:28:11.951Z,65
2024-03-15T15:29:23.876Z,66
2024-03-15T15:30:35.954Z,66
2024-03-15T15:31:47.946Z,66
2024-03-15T15:32:59.987Z,68
2024-03-15T15:34:11.926Z,71
2024-03-15T15:35:23.931Z,73
2024-03-15T15:36:35.942Z,76
2024-03-15T15:37:47.870Z,77
2024-03-15T15:38:59.880Z,77
2024-03-15T15:40:11.927Z,77
2024-03-15T15:41:23.863Z,78
2024-03-15T15:42:35.966Z,79
2024-03-15T15:43:47.894Z,81
2024-03-15T15:44:59.968Z,83
2024-03-15T15:46:11.916Z,83
2024-03-15T15:47:23.995Z,85
2024-03-15T15:48:36.089Z,84
2024-03-15T15:49:47.889Z,84
2024-03-15T15:50:59.877Z,86
2024-03-15T15:52:12.268Z,86
2024-03-15T15:53:24.332Z,85
2024-03-15T15:54:36.242Z,86
2024-03-15T15:55:48.301Z,87
2024-03-15T15:57:00.241Z,89
2024-03-15T15:58:12.537Z,89
2024-03-15T15:59:24.276Z,89
2024-03-15T16:00:36.359Z,90
2024-03-15T16:01:48.289Z,90
2024-03-15T16:03:01.589Z,90
2024-03-15T16:04:12.273Z,91
2024-03-15T16:05:24.289Z,91
2024-03-15T16:06:36.284Z,91
2024-03-15T16:07:48.300Z,87
2024-03-15T16:09:00.250Z,90
2024-03-15T16:10:12.314Z,90
2024-03-15T16:11:24.310Z,88
2024-03-15T16:12:36.294Z,87
2024-03-15T16:13:48.267Z,88
2024-03-15T16:15:01.444Z,88
2024-03-15T16:16:12.279Z,89
2024-03-15T16:17:24.295Z,89
2024-03-15T16:18:36.281Z,88
2024-03-15T16:19:48.282Z,88
2024-03-15T16:21:00.261Z,89
2024-03-15T16:22:12.415Z,90
2024-03-15T16:23:24.270Z,89
2024-03-15T16:24:36.256Z,89
2024-03-15T16:25:48.266Z,90
2024-03-15T16:27:00.275Z,91
2024-03-15T16:28:12.335Z,91
2024-03-15T16:29:24.275Z,89
2024-03-15T16:30:36.272Z,90
2024-03-15T16:33:01.749Z,92
2024-03-15T16:34:12.372Z,91
2024-03-15T16:35:24.258Z,90
2024-03-15T16:36:36.295Z,90
2024-03-15T16:37:48.252Z,91
2024-03-15T16:39:01.601Z,92
2024-03-15T16:40:12.284Z,91
2024-03-15T16:41:24.267Z,90
2024-03-15T16:42:36.407Z,89
2024-03-15T16:43:48.281Z,89
2024-03-15T16:45:00.283Z,90
2024-03-15T16:46:12.319Z,90
2024-03-15T16:47:24.293Z,90
2024-03-15T16:48:36.272Z,90
2024-03-15T16:49:48.249Z,88
2024-03-15T16:51:00.305Z,89
2024-03-15T16:52:12.715Z,88
2024-03-15T16:53:24.685Z,88
2024-03-15T16:54:36.658Z,88
2024-03-15T16:55:52.179Z,88
2024-03-15T16:57:00.734Z,89
2024-03-15T16:58:12.739Z,89
2024-03-15T16:59:24.724Z,89
2024-03-15T17:00:36.763Z,90
2024-03-15T17:03:00.765Z,88
2024-03-15T17:04:12.792Z,91
2024-03-15T17:05:24.757Z,90
2024-03-15T17:06:36.739Z,90
2024-03-15T17:07:48.714Z,89
2024-03-15T17:09:00.729Z,89
2024-03-15T17:10:12.698Z,87
2024-03-15T17:11:24.703Z,87
2024-03-15T17:12:36.680Z,87
2024-03-15T17:13:48.749Z,86
2024-03-15T17:15:00.744Z,86
2024-03-15T17:16:12.683Z,86
2024-03-15T17:17:24.724Z,85
2024-03-15T17:18:36.788Z,86
2024-03-15T17:19:48.709Z,87
2024-03-15T17:21:00.691Z,87